Time;durP1;ratioP1;P1;durP2;ratioP2;P2;SDS_P1;SDS_P2;PMS_P1;PMS_P2;Temp;Humidity;BMP_temperature;BMP_pressure;BME280_temperature;BME280_humidity;BME280_pressure;Samples;Min_cycle;Max_cycle;Signal;HPM_P1;HPM_P2
2023/03/18 00:02:19;;;;;;;6.87;4.20;;;10.00;1.00;;;;;;5050333;28;20438;-54
2023/03/18 00:04:45;;;;;;;8.57;4.57;;;10.00;1.00;;;;;;5049291;28;20337;-55
2023/03/18 00:07:11;;;;;;;9.43;5.40;;;9.90;1.00;;;;;;5056836;28;20184;-54
2023/03/18 00:09:37;;;;;;;6.97;4.67;;;9.80;1.00;;;;;;5055426;28;20441;-54
2023/03/18 00:12:03;;;;;;;9.37;5.50;;;9.80;1.00;;;;;;5045135;28;20503;-55
2023/03/18 00:14:30;;;;;;;5.43;4.20;;;9.80;1.00;;;;;;5046332;28;20273;-54
2023/03/18 00:16:56;;;;;;;6.20;4.60;;;9.70;1.00;;;;;;5049139;28;20474;-54
2023/03/18 00:19:23;;;;;;;6.37;5.00;;;9.80;1.00;;;;;;5054679;28;20971;-54
2023/03/18 00:21:49;;;;;;;9.40;4.80;;;9.80;1.00;;;;;;5044728;28;20439;-55
2023/03/18 00:24:15;;;;;;;7.73;4.60;;;9.80;1.00;;;;;;5040851;28;20445;-53
2023/03/18 00:26:42;;;;;;;5.50;4.70;;;9.80;1.00;;;;;;5042032;28;20455;-55
2023/03/18 00:29:08;;;;;;;8.53;4.77;;;9.80;1.00;;;;;;5043145;28;20446;-56
2023/03/18 00:31:34;;;;;;;5.80;4.83;;;9.70;1.00;;;;;;5040275;28;21391;-54
2023/03/18 00:34:00;;;;;;;10.27;5.07;;;9.80;1.00;;;;;;5044051;28;20479;-54
2023/03/18 00:36:26;;;;;;;9.03;4.70;;;9.80;1.00;;;;;;5038170;28;20597;-54
2023/03/18 00:38:56;;;;;;;8.27;4.90;;;9.70;1.00;;;;;;5042937;28;20195;-54
2023/03/18 00:41:36;;;;;;;8.10;4.70;;;9.70;1.00;;;;;;5041240;28;20192;-55
2023/03/18 00:44:03;;;;;;;8.57;5.10;;;9.70;1.00;;;;;;5041007;28;21035;-54
2023/03/18 00:46:32;;;;;;;6.47;4.80;;;9.80;1.00;;;;;;5046768;28;20429;-54
2023/03/18 00:49:00;;;;;;;7.67;4.70;;;9.70;1.00;;;;;;5046555;28;20451;-54
2023/03/18 00:51:31;;;;;;;7.77;4.83;;;9.80;1.00;;;;;;5043889;28;20968;-54
2023/03/18 00:53:59;;;;;;;4.90;4.13;;;9.80;1.00;;;;;;5048478;28;20499;-54
2023/03/18 00:56:26;;;;;;;5.33;4.47;;;9.80;1.00;;;;;;5048920;28;20467;-54
2023/03/18 00:58:52;;;;;;;5.53;4.33;;;9.40;1.00;;;;;;5048478;28;20450;-53
2023/03/18 01:01:20;;;;;;;5.63;4.20;;;9.80;1.00;;;;;;5048323;28;20534;-55
2023/03/18 01:03:48;;;;;;;6.87;4.10;;;9.80;1.00;;;;;;5046302;28;20550;-53
2023/03/18 01:06:17;;;;;;;6.70;4.13;;;9.70;1.00;;;;;;5054520;28;20474;-54
2023/03/18 01:08:43;;;;;;;7.03;4.40;;;9.80;1.00;;;;;;5048456;28;20473;-55
2023/03/18 01:11:09;;;;;;;6.70;4.33;;;9.80;1.00;;;;;;5048164;28;20954;-55
2023/03/18 01:13:36;;;;;;;4.87;4.37;;;9.80;1.00;;;;;;5045552;28;20458;-53
2023/03/18 01:16:02;;;;;;;7.13;4.40;;;9.80;1.00;;;;;;5049014;28;20452;-55
2023/03/18 01:18:28;;;;;;;7.10;4.60;;;9.70;1.00;;;;;;5054806;28;20450;-54
2023/03/18 01:20:54;;;;;;;6.43;3.97;;;9.70;1.00;;;;;;5047430;28;20516;-54
2023/03/18 01:23:20;;;;;;;9.70;4.50;;;9.70;1.00;;;;;;5058133;28;20477;-54
2023/03/18 01:25:46;;;;;;;6.23;4.40;;;9.70;1.00;;;;;;5054586;28;20442;-55
2023/03/18 01:28:12;;;;;;;5.77;4.40;;;9.70;1.00;;;;;;5056176;28;20188;-54
2023/03/18 01:30:38;;;;;;;6.13;4.93;;;9.80;1.00;;;;;;5048351;28;20885;-55
2023/03/18 01:33:06;;;;;;;4.90;4.40;;;9.70;1.00;;;;;;5040464;28;20455;-54
2023/03/18 01:35:33;;;;;;;7.10;4.63;;;9.70;1.00;;;;;;5046385;28;20481;-54
2023/03/18 01:37:59;;;;;;;6.60;4.13;;;9.70;1.00;;;;;;5047491;28;20482;-55
2023/03/18 01:40:27;;;;;;;8.10;4.87;;;9.70;1.00;;;;;;5052300;28;20937;-55
2023/03/18 01:43:13;;;;;;;8.30;4.97;;;9.70;1.00;;;;;;5048720;28;20231;-54
2023/03/18 01:45:41;;;;;;;6.00;4.60;;;9.70;1.00;;;;;;5044889;28;20442;-54
2023/03/18 01:48:13;;;;;;;8.57;4.90;;;9.70;1.00;;;;;;5051569;28;20543;-54
2023/03/18 01:50:39;;;;;;;7.40;5.10;;;9.70;1.00;;;;;;5037575;28;20450;-54
2023/03/18 01:53:09;;;;;;;7.00;4.93;;;9.70;1.00;;;;;;5043826;28;20455;-53
2023/03/18 01:55:36;;;;;;;7.97;4.97;;;9.60;1.00;;;;;;5046615;28;20558;-54
2023/03/18 01:58:07;;;;;;;6.80;4.43;;;9.60;1.00;;;;;;5046396;28;20479;-54
2023/03/18 02:00:38;;;;;;;6.73;4.80;;;9.60;1.00;;;;;;5044082;28;20453;-54
2023/03/18 02:03:05;;;;;;;9.33;4.40;;;9.60;1.00;;;;;;5046627;28;20451;-54
2023/03/18 02:05:31;;;;;;;8.50;4.30;;;9.60;1.00;;;;;;5044701;28;21284;-55
2023/03/18 02:07:57;;;;;;;5.30;3.97;;;9.60;1.00;;;;;;5047935;28;20777;-55
2023/03/18 02:10:27;;;;;;;10.37;4.40;;;9.60;1.00;;;;;;5055437;28;20456;-54
2023/03/18 02:13:14;;;;;;;6.90;4.63;;;9.60;1.00;;;;;;5045127;28;20275;-54
2023/03/18 02:15:59;;;;;;;7.80;4.80;;;9.50;1.00;;;;;;5048061;28;20451;-55
2023/03/18 02:18:33;;;;;;;6.20;4.67;;;9.60;1.00;;;;;;5045191;28;20453;-53
2023/03/18 02:21:08;;;;;;;9.10;4.37;;;9.50;1.00;;;;;;5056380;28;20593;-53
2023/03/18 02:24:00;;;;;;;6.17;4.87;;;9.50;1.00;;;;;;5044548;28;20579;-54
2023/03/18 02:26:26;;;;;;;5.00;3.60;;;9.50;1.00;;;;;;5047761;28;21027;-55
2023/03/18 02:28:56;;;;;;;6.70;4.23;;;9.40;1.00;;;;;;5045120;28;20500;-55
2023/03/18 02:31:22;;;;;;;7.43;4.37;;;9.40;1.00;;;;;;5043937;28;20242;-55
2023/03/18 02:33:49;;;;;;;8.80;5.10;;;9.40;1.00;;;;;;5045510;28;20495;-54
2023/03/18 02:36:23;;;;;;;8.33;5.17;;;9.40;1.00;;;;;;5053220;28;20971;-54
2023/03/18 02:38:49;;;;;;;5.70;4.03;;;9.40;1.00;;;;;;5043372;28;20457;-54
2023/03/18 02:41:21;;;;;;;5.60;4.13;;;9.40;1.00;;;;;;5043907;28;20980;-56
2023/03/18 02:43:48;;;;;;;8.40;4.90;;;9.40;1.00;;;;;;5057697;28;20192;-55
2023/03/18 02:46:20;;;;;;;6.53;4.53;;;9.40;1.00;;;;;;5048497;28;20470;-54
2023/03/18 02:48:47;;;;;;;6.47;4.83;;;9.40;1.00;;;;;;5045939;28;20540;-54
2023/03/18 02:51:15;;;;;;;6.23;4.33;;;9.40;1.00;;;;;;5045418;28;20454;-54
2023/03/18 02:53:42;;;;;;;6.33;4.33;;;9.40;1.00;;;;;;5045240;28;20466;-55
2023/03/18 02:56:08;;;;;;;6.93;5.30;;;9.50;1.00;;;;;;5055855;28;20816;-55
2023/03/18 02:58:35;;;;;;;6.57;4.63;;;9.30;1.00;;;;;;5046241;28;20439;-54
2023/03/18 03:01:01;;;;;;;6.53;4.80;;;9.40;1.00;;;;;;5045616;28;20220;-55
2023/03/18 03:03:28;;;;;;;5.27;4.30;;;9.30;1.00;;;;;;5042366;28;20470;-53
2023/03/18 03:05:54;;;;;;;9.03;4.60;;;9.40;1.00;;;;;;5044522;28;20991;-54
2023/03/18 03:08:20;;;;;;;5.93;4.43;;;9.50;1.00;;;;;;5047692;28;20447;-56
2023/03/18 03:10:45;;;;;;;5.53;4.33;;;9.40;1.00;;;;;;5054122;28;20481;-55
2023/03/18 03:13:11;;;;;;;5.53;4.50;;;9.30;1.00;;;;;;5049093;28;20979;-53
2023/03/18 03:15:40;;;;;;;8.87;4.40;;;9.40;1.00;;;;;;5041819;28;20223;-54
2023/03/18 03:18:06;;;;;;;7.83;4.73;;;9.30;1.00;;;;;;5038815;28;20209;-54
2023/03/18 03:20:34;;;;;;;5.90;4.60;;;9.30;1.00;;;;;;5038092;28;20443;-53
2023/03/18 03:23:02;;;;;;;8.63;4.67;;;9.30;1.00;;;;;;5041279;28;20809;-54
2023/03/18 03:25:28;;;;;;;7.63;5.43;;;9.40;1.00;;;;;;5038277;28;20521;-54
2023/03/18 03:27:53;;;;;;;7.10;5.03;;;9.30;1.00;;;;;;5039146;28;20454;-55
2023/03/18 03:30:19;;;;;;;6.77;4.27;;;9.30;1.00;;;;;;5038796;28;20450;-55
2023/03/18 03:32:46;;;;;;;4.40;4.00;;;9.20;1.00;;;;;;5037266;28;20245;-56
2023/03/18 03:35:16;;;;;;;8.70;4.90;;;9.30;1.00;;;;;;5034795;28;20196;-55
2023/03/18 03:37:42;;;;;;;8.30;4.97;;;9.30;1.00;;;;;;5037094;28;20494;-54
2023/03/18 03:40:14;;;;;;;4.97;4.03;;;9.30;1.00;;;;;;5036497;28;20447;-55
2023/03/18 03:42:40;;;;;;;6.77;4.90;;;9.30;1.00;;;;;;5041255;28;20450;-54
2023/03/18 03:45:07;;;;;;;6.87;4.80;;;9.30;1.00;;;;;;5048187;28;20462;-53
2023/03/18 03:47:33;;;;;;;9.20;4.63;;;9.30;1.00;;;;;;5048934;28;20914;-54
2023/03/18 03:49:58;;;;;;;6.87;4.77;;;9.20;1.00;;;;;;5040396;28;20433;-54
2023/03/18 03:52:24;;;;;;;5.60;4.17;;;9.20;1.00;;;;;;5045119;28;20457;-55
2023/03/18 03:54:50;;;;;;;7.83;4.73;;;9.20;1.00;;;;;;5048123;28;20255;-54
2023/03/18 03:57:17;;;;;;;9.00;4.90;;;9.20;1.00;;;;;;5046755;28;20552;-54
2023/03/18 03:59:42;;;;;;;7.00;4.97;;;9.20;1.00;;;;;;5042690;28;20859;-55
2023/03/18 04:02:08;;;;;;;5.30;4.40;;;9.10;1.00;;;;;;5045223;28;20449;-53
2023/03/18 04:04:34;;;;;;;7.43;5.00;;;9.10;1.00;;;;;;5040067;28;20272;-54
2023/03/18 04:07:02;;;;;;;7.97;5.13;;;9.10;1.00;;;;;;5051036;28;20451;-54
2023/03/18 04:09:28;;;;;;;4.80;4.30;;;9.10;1.00;;;;;;5047059;28;20461;-54
2023/03/18 04:11:53;;;;;;;9.07;4.37;;;9.10;1.00;;;;;;5047886;28;20458;-54
2023/03/18 04:14:19;;;;;;;6.10;4.33;;;9.00;1.00;;;;;;5044614;28;20455;-55
2023/03/18 04:16:45;;;;;;;7.37;4.90;;;9.10;1.00;;;;;;5045598;28;20208;-54
2023/03/18 04:19:11;;;;;;;5.50;4.47;;;9.00;1.00;;;;;;5057721;28;20504;-54
2023/03/18 04:21:37;;;;;;;8.57;4.67;;;9.00;1.00;;;;;;5052806;28;20228;-55
2023/03/18 04:24:03;;;;;;;8.30;4.60;;;9.00;1.00;;;;;;5045650;28;20967;-54
2023/03/18 04:26:30;;;;;;;7.47;5.10;;;8.90;1.00;;;;;;5050325;28;20978;-54
2023/03/18 04:28:56;;;;;;;6.43;4.43;;;8.90;1.00;;;;;;5043730;28;20454;-54
2023/03/18 04:31:22;;;;;;;8.77;5.67;;;8.80;1.00;;;;;;5044968;28;20455;-54
2023/03/18 04:33:48;;;;;;;6.23;4.70;;;8.80;1.00;;;;;;5047045;28;20958;-55
2023/03/18 04:36:14;;;;;;;6.20;4.90;;;8.80;1.00;;;;;;5045650;28;20488;-54
2023/03/18 04:38:40;;;;;;;6.10;4.57;;;8.80;1.00;;;;;;5047994;28;20494;-54
2023/03/18 04:41:05;;;;;;;7.07;4.63;;;8.70;1.00;;;;;;5047710;28;20475;-54
2023/03/18 04:43:31;;;;;;;6.23;4.80;;;8.70;1.00;;;;;;5046650;28;20200;-53
2023/03/18 04:45:57;;;;;;;5.00;4.30;;;8.70;1.00;;;;;;5050556;28;20280;-54
2023/03/18 04:48:23;;;;;;;8.10;4.60;;;8.70;1.00;;;;;;5047574;28;20192;-55
2023/03/18 04:50:49;;;;;;;10.47;5.20;;;8.70;1.00;;;;;;5055894;28;20425;-53
2023/03/18 04:53:15;;;;;;;11.60;4.60;;;8.70;1.00;;;;;;5054194;28;20188;-55
2023/03/18 04:55:42;;;;;;;6.23;4.70;;;8.70;1.00;;;;;;5056609;28;20450;-55
2023/03/18 04:58:08;;;;;;;5.97;4.43;;;8.60;1.00;;;;;;5045956;28;20478;-53
2023/03/18 05:00:34;;;;;;;8.70;5.00;;;8.60;1.00;;;;;;5047903;28;20871;-56
2023/03/18 05:03:00;;;;;;;6.90;5.37;;;8.60;1.00;;;;;;5048028;28;20443;-54
2023/03/18 05:05:26;;;;;;;6.63;4.43;;;8.60;1.00;;;;;;5052738;28;20479;-53
2023/03/18 05:07:52;;;;;;;11.30;5.33;;;8.50;1.00;;;;;;5049371;28;20454;-54
2023/03/18 05:10:19;;;;;;;5.70;4.30;;;8.60;1.00;;;;;;5056925;28;20288;-54
2023/03/18 05:12:45;;;;;;;6.67;5.60;;;8.50;1.00;;;;;;5039847;28;20197;-53
2023/03/18 05:15:11;;;;;;;5.67;5.10;;;8.50;1.00;;;;;;5043431;28;20463;-55
2023/03/18 05:17:39;;;;;;;8.80;4.93;;;8.50;1.00;;;;;;5038654;28;20252;-53
2023/03/18 05:20:06;;;;;;;8.90;4.87;;;8.50;1.00;;;;;;5038540;28;20458;-53
2023/03/18 05:22:31;;;;;;;9.33;4.63;;;8.50;1.00;;;;;;5040285;28;20541;-54
2023/03/18 05:24:57;;;;;;;6.00;4.77;;;8.50;1.00;;;;;;5042722;28;20478;-54
2023/03/18 05:27:23;;;;;;;7.43;4.70;;;8.40;1.00;;;;;;5043107;28;20536;-55
2023/03/18 05:29:48;;;;;;;6.60;4.87;;;8.40;1.00;;;;;;5049667;28;20200;-54
2023/03/18 05:32:15;;;;;;;6.80;5.50;;;8.40;1.00;;;;;;5051431;28;20196;-55
2023/03/18 05:34:41;;;;;;;7.33;5.13;;;8.40;1.00;;;;;;5051410;28;20969;-54
2023/03/18 05:37:10;;;;;;;6.50;4.73;;;8.40;1.00;;;;;;5054505;28;20481;-55
2023/03/18 05:39:36;;;;;;;6.00;4.80;;;8.40;1.00;;;;;;5048038;28;20446;-55
2023/03/18 05:42:03;;;;;;;5.87;4.93;;;8.40;1.00;;;;;;5058713;28;20451;-54
2023/03/18 05:44:29;;;;;;;7.80;5.03;;;8.40;1.00;;;;;;5043645;28;20538;-54
2023/03/18 05:46:55;;;;;;;7.40;4.50;;;8.40;1.00;;;;;;5050381;28;20455;-54
2023/03/18 05:49:22;;;;;;;7.93;4.43;;;8.30;1.00;;;;;;5043812;28;20473;-55
2023/03/18 05:51:49;;;;;;;7.13;5.00;;;8.50;1.00;;;;;;5050038;28;20966;-54
2023/03/18 05:54:16;;;;;;;8.20;4.70;;;8.50;1.00;;;;;;5045513;28;20485;-56
2023/03/18 05:56:44;;;;;;;6.10;4.87;;;8.50;1.00;;;;;;5048667;28;20507;-55
2023/03/18 05:59:10;;;;;;;7.60;5.13;;;8.40;1.00;;;;;;5053190;28;20450;-54
2023/03/18 06:01:36;;;;;;;5.90;4.23;;;8.50;1.00;;;;;;5044801;28;20461;-56
2023/03/18 06:04:03;;;;;;;6.50;4.57;;;8.50;1.00;;;;;;5050281;28;20455;-55
2023/03/18 06:06:29;;;;;;;6.50;5.20;;;8.50;1.00;;;;;;5043485;28;20446;-55
2023/03/18 06:08:55;;;;;;;6.60;4.27;;;8.50;1.00;;;;;;5044970;28;20459;-54
2023/03/18 06:11:21;;;;;;;6.60;4.53;;;8.50;1.00;;;;;;5045026;28;20196;-54
2023/03/18 06:13:46;;;;;;;6.07;4.10;;;8.60;1.00;;;;;;5046501;28;20203;-53
2023/03/18 06:16:13;;;;;;;5.23;4.73;;;8.60;1.00;;;;;;5043000;28;20478;-54
2023/03/18 06:18:39;;;;;;;5.50;4.60;;;8.60;1.00;;;;;;5056447;28;20641;-56
2023/03/18 06:21:08;;;;;;;5.10;4.27;;;8.60;1.00;;;;;;5046308;28;20458;-55
2023/03/18 06:23:34;;;;;;;5.63;4.23;;;8.60;1.00;;;;;;5047110;28;20800;-54
2023/03/18 06:26:00;;;;;;;6.27;4.87;;;8.70;1.00;;;;;;5048968;28;20483;-54
2023/03/18 06:28:26;;;;;;;6.37;5.30;;;8.70;1.00;;;;;;5046765;28;20458;-54
2023/03/18 06:30:56;;;;;;;7.20;5.07;;;8.70;1.00;;;;;;5049400;28;20451;-53
2023/03/18 06:33:22;;;;;;;6.23;4.60;;;8.70;1.00;;;;;;5047217;28;20223;-55
2023/03/18 06:35:48;;;;;;;6.83;4.50;;;8.80;1.00;;;;;;5045330;28;20505;-56
2023/03/18 06:38:15;;;;;;;10.20;5.67;;;8.90;1.00;;;;;;5040758;28;20470;-56
2023/03/18 06:40:42;;;;;;;5.43;4.63;;;9.00;1.00;;;;;;5046843;28;20544;-54
2023/03/18 06:43:09;;;;;;;7.47;4.67;;;9.10;1.00;;;;;;5043733;28;20946;-55
2023/03/18 06:45:35;;;;;;;8.07;5.53;;;9.20;1.00;;;;;;5042924;28;20447;-56
2023/03/18 06:48:02;;;;;;;7.27;5.00;;;9.10;1.00;;;;;;5055161;28;20517;-55
2023/03/18 06:50:29;;;;;;;8.00;5.27;;;9.20;1.00;;;;;;5047692;28;20446;-54
2023/03/18 06:52:54;;;;;;;8.47;4.40;;;9.30;1.00;;;;;;5049160;28;20447;-55
2023/03/18 06:55:20;;;;;;;8.97;5.17;;;9.40;1.00;;;;;;5056534;28;20539;-55
2023/03/18 06:57:46;;;;;;;8.30;5.20;;;9.30;1.00;;;;;;5051037;28;20216;-54
2023/03/18 07:00:12;;;;;;;6.70;5.07;;;9.40;1.00;;;;;;5044457;28;20192;-54
2023/03/18 07:02:38;;;;;;;6.30;4.80;;;9.30;1.00;;;;;;5043728;28;20446;-55
2023/03/18 07:05:04;;;;;;;6.20;4.63;;;9.40;1.00;;;;;;5045770;28;20487;-53
2023/03/18 07:07:30;;;;;;;7.10;4.87;;;9.60;1.00;;;;;;5041679;28;22355;-55
2023/03/18 07:09:56;;;;;;;7.07;4.33;;;9.70;1.00;;;;;;5050758;28;20441;-54
2023/03/18 07:12:21;;;;;;;6.93;5.20;;;9.80;1.00;;;;;;5046422;28;20459;-53
2023/03/18 07:14:47;;;;;;;6.30;4.60;;;9.90;1.00;;;;;;5045438;28;20249;-54
2023/03/18 07:17:13;;;;;;;6.57;4.50;;;9.90;1.00;;;;;;5053250;28;20266;-55
2023/03/18 07:19:39;;;;;;;7.10;4.83;;;10.00;1.00;;;;;;5057440;28;20631;-54
2023/03/18 07:22:05;;;;;;;8.03;5.03;;;10.00;1.00;;;;;;5046703;28;20451;-55
2023/03/18 07:24:30;;;;;;;7.53;5.23;;;10.10;1.00;;;;;;5046262;28;20987;-55
2023/03/18 07:26:56;;;;;;;8.50;4.67;;;10.20;1.00;;;;;;5053065;28;20278;-54
2023/03/18 07:29:22;;;;;;;14.43;5.13;;;10.50;1.00;;;;;;5058677;28;20190;-54
2023/03/18 07:31:48;;;;;;;6.30;5.23;;;10.70;1.00;;;;;;5061225;28;20188;-54
2023/03/18 07:34:13;;;;;;;8.43;5.20;;;10.80;1.00;;;;;;5061808;28;20204;-55
2023/03/18 07:36:40;;;;;;;6.60;4.77;;;11.00;1.00;;;;;;5049340;28;21020;-54
2023/03/18 07:39:07;;;;;;;7.90;4.93;;;11.10;1.00;;;;;;5057141;28;20204;-54
2023/03/18 07:41:32;;;;;;;7.17;4.73;;;11.30;1.00;;;;;;5056395;28;20450;-55
2023/03/18 07:43:58;;;;;;;6.20;4.70;;;11.50;1.00;;;;;;5044954;28;20512;-55
2023/03/18 07:46:24;;;;;;;7.83;5.10;;;11.60;1.00;;;;;;5044891;28;20229;-54
2023/03/18 07:48:50;;;;;;;6.37;5.10;;;11.60;1.00;;;;;;5046658;28;20276;-54
2023/03/18 07:51:16;;;;;;;6.90;5.20;;;11.60;1.00;;;;;;5052594;28;20558;-54
2023/03/18 07:53:43;;;;;;;8.37;4.70;;;11.60;1.00;;;;;;5051520;28;20616;-55
2023/03/18 07:56:09;;;;;;;6.97;5.20;;;11.70;1.00;;;;;;5049500;28;20457;-54
2023/03/18 07:58:36;;;;;;;10.00;5.40;;;11.70;1.00;;;;;;5046540;28;20451;-54
2023/03/18 08:01:02;;;;;;;6.63;4.90;;;11.70;1.00;;;;;;5043611;28;20796;-55
2023/03/18 08:03:28;;;;;;;6.00;4.77;;;11.70;1.00;;;;;;5051533;28;20954;-54
2023/03/18 08:05:54;;;;;;;8.30;5.10;;;11.70;1.00;;;;;;5054473;28;20424;-56
2023/03/18 08:08:21;;;;;;;7.20;5.27;;;11.80;1.00;;;;;;5051671;28;20238;-54
2023/03/18 08:10:47;;;;;;;6.60;4.70;;;11.80;1.00;;;;;;5048243;28;20484;-54
2023/03/18 08:13:13;;;;;;;5.47;4.53;;;11.80;1.00;;;;;;5050700;28;21663;-55
2023/03/18 08:15:39;;;;;;;6.50;5.10;;;11.90;1.00;;;;;;5043057;28;20224;-54
2023/03/18 08:18:05;;;;;;;8.93;4.87;;;11.90;1.00;;;;;;5050530;28;21032;-54
2023/03/18 08:20:31;;;;;;;5.67;5.07;;;12.00;1.00;;;;;;5047888;28;20446;-54
2023/03/18 08:22:56;;;;;;;8.03;5.80;;;12.10;1.00;;;;;;5048842;28;20279;-54
2023/03/18 08:25:22;;;;;;;7.80;5.20;;;12.30;1.00;;;;;;5049824;28;20180;-56
2023/03/18 08:27:49;;;;;;;6.43;5.03;;;12.40;1.00;;;;;;5050722;28;20524;-54
2023/03/18 08:30:15;;;;;;;7.00;4.90;;;12.50;1.00;;;;;;5049079;28;20451;-56
2023/03/18 08:32:42;;;;;;;5.27;4.70;;;12.60;1.00;;;;;;5069609;28;20489;-55
2023/03/18 08:35:08;;;;;;;6.83;5.30;;;12.70;1.00;;;;;;5046772;28;20623;-55
2023/03/18 08:37:35;;;;;;;8.07;4.97;;;12.90;1.00;;;;;;5063216;28;20473;-54
2023/03/18 08:40:01;;;;;;;8.33;5.03;;;13.00;1.00;;;;;;5046368;28;20462;-56
2023/03/18 08:42:27;;;;;;;12.13;5.20;;;13.30;1.00;;;;;;5047438;28;20450;-56
2023/03/18 08:44:53;;;;;;;6.70;5.30;;;13.40;1.00;;;;;;5049007;28;20421;-54
2023/03/18 08:47:20;;;;;;;7.50;5.40;;;13.50;1.00;;;;;;5046371;28;21390;-56
2023/03/18 08:49:45;;;;;;;6.23;5.13;;;13.60;1.00;;;;;;5047172;28;20670;-56
2023/03/18 08:52:11;;;;;;;6.90;4.80;;;13.70;1.00;;;;;;5049405;28;20454;-56
2023/03/18 08:54:37;;;;;;;6.27;5.20;;;13.90;1.00;;;;;;5048128;28;20307;-55
2023/03/18 08:57:03;;;;;;;7.00;5.23;;;13.80;1.00;;;;;;5048508;28;20291;-54
2023/03/18 08:59:29;;;;;;;6.80;4.63;;;13.70;1.00;;;;;;5048586;28;20443;-54
2023/03/18 09:01:55;;;;;;;6.40;5.03;;;13.60;1.00;;;;;;5047947;28;20435;-57
2023/03/18 09:04:21;;;;;;;6.20;5.43;;;13.70;1.00;;;;;;5048147;28;20188;-56
2023/03/18 09:06:47;;;;;;;6.80;5.20;;;13.70;1.00;;;;;;5048732;28;20184;-55
2023/03/18 09:09:14;;;;;;;8.83;5.43;;;13.90;1.00;;;;;;5048296;28;20816;-56
2023/03/18 09:11:40;;;;;;;6.50;5.30;;;14.00;1.00;;;;;;5052917;28;20451;-57
2023/03/18 09:14:05;;;;;;;6.53;5.00;;;14.30;1.00;;;;;;5049920;28;20446;-55
2023/03/18 09:16:31;;;;;;;8.47;5.50;;;14.30;1.00;;;;;;5058893;28;20201;-54
2023/03/18 09:18:57;;;;;;;7.73;4.63;;;14.30;1.00;;;;;;5050213;28;20187;-56
2023/03/18 09:21:23;;;;;;;7.50;5.80;;;14.50;1.00;;;;;;5047274;28;20223;-56
2023/03/18 09:23:49;;;;;;;8.23;5.40;;;14.60;1.00;;;;;;5047349;28;20216;-56
2023/03/18 09:26:15;;;;;;;5.93;4.90;;;14.70;1.00;;;;;;5057475;28;20191;-55
2023/03/18 09:28:41;;;;;;;11.70;5.40;;;14.90;1.00;;;;;;5053554;28;20940;-56
2023/03/18 09:31:07;;;;;;;7.47;5.40;;;15.10;1.00;;;;;;5050383;28;20416;-56
2023/03/18 09:33:32;;;;;;;9.30;5.80;;;15.20;1.00;;;;;;5048841;28;20650;-55
2023/03/18 09:35:58;;;;;;;6.60;5.63;;;15.40;1.00;;;;;;5050377;28;20184;-54
2023/03/18 09:38:24;;;;;;;10.47;6.33;;;15.60;1.00;;;;;;5048094;28;20978;-57
2023/03/18 09:40:58;;;;;;;6.90;5.30;;;15.80;1.00;;;;;;5056870;28;20194;-55
2023/03/18 09:43:45;;;;;;;7.40;6.03;;;16.00;1.00;;;;;;5048816;28;20180;-55
2023/03/18 09:46:54;;;;;;;7.10;6.13;;;16.10;1.00;;;;;;5049544;28;20465;-55
2023/03/18 09:49:46;;;;;;;6.77;5.40;;;15.90;1.00;;;;;;5061208;28;20538;-55
2023/03/18 09:52:25;;;;;;;9.53;5.50;;;16.00;1.00;;;;;;5041095;28;20465;-57
2023/03/18 09:55:16;;;;;;;6.53;5.60;;;16.00;1.00;;;;;;5048928;28;20977;-56
2023/03/18 09:57:45;;;;;;;6.67;5.20;;;16.00;1.00;;;;;;5037376;28;20617;-55
2023/03/18 10:00:12;;;;;;;7.23;5.70;;;16.20;1.00;;;;;;5053204;28;20435;-56
2023/03/18 10:02:46;;;;;;;8.20;5.63;;;16.20;1.00;;;;;;5051444;28;20948;-56
2023/03/18 10:05:21;;;;;;;9.73;6.90;;;16.20;1.00;;;;;;5055136;28;20477;-56
2023/03/18 10:07:51;;;;;;;6.33;5.10;;;16.20;1.00;;;;;;5037175;28;20477;-54
2023/03/18 10:10:52;;;;;;;8.77;6.30;;;16.40;1.00;;;;;;5052063;28;21056;-55
2023/03/18 10:13:47;;;;;;;7.63;6.20;;;16.50;1.00;;;;;;5017830;28;20453;-57
2023/03/18 10:16:20;;;;;;;8.73;6.43;;;16.60;1.00;;;;;;5041810;28;20461;-55
2023/03/18 10:18:46;;;;;;;9.50;6.27;;;16.90;1.00;;;;;;5048904;28;20466;-56
2023/03/18 10:21:23;;;;;;;6.50;5.73;;;17.10;1.00;;;;;;5054018;28;20478;-55
2023/03/18 10:24:23;;;;;;;7.13;6.43;;;17.20;1.00;;;;;;5044103;28;20221;-56
2023/03/18 10:27:02;;;;;;;8.60;7.23;;;17.20;1.00;;;;;;5047993;28;20421;-56
2023/03/18 10:29:54;;;;;;;8.77;6.27;;;17.20;1.00;;;;;;5045468;28;20449;-56
2023/03/18 10:33:00;;;;;;;6.93;5.80;;;17.20;1.00;;;;;;5057241;28;20445;-58
2023/03/18 10:35:33;;;;;;;8.47;6.27;;;17.00;1.00;;;;;;5016411;28;20517;-56
2023/03/18 10:38:10;;;;;;;7.80;5.90;;;17.10;1.00;;;;;;5042361;28;20449;-56
2023/03/18 10:40:40;;;;;;;7.33;6.10;;;17.00;1.00;;;;;;5051023;28;21009;-55
2023/03/18 10:43:18;;;;;;;9.53;5.87;;;17.10;1.00;;;;;;5069426;28;21220;-55
2023/03/18 10:45:45;;;;;;;8.33;6.13;;;17.30;1.00;;;;;;5069380;28;20434;-54
2023/03/18 10:48:19;;;;;;;8.17;7.00;;;17.50;1.00;;;;;;5062780;28;20470;-55
2023/03/18 10:51:08;;;;;;;10.80;6.83;;;17.50;1.00;;;;;;5049322;28;20435;-55
2023/03/18 10:53:38;;;;;;;11.10;7.00;;;17.40;1.00;;;;;;5049432;28;21145;-56
2023/03/18 10:56:13;;;;;;;6.83;6.13;;;17.30;1.00;;;;;;5049264;28;20435;-56
2023/03/18 10:58:40;;;;;;;6.47;5.80;;;17.20;1.00;;;;;;5047784;28;20472;-54
2023/03/18 11:01:13;;;;;;;6.50;5.70;;;17.20;1.00;;;;;;5049191;28;20977;-54
2023/03/18 11:03:47;;;;;;;7.77;5.50;;;17.20;1.00;;;;;;5050945;28;20429;-55
2023/03/18 11:06:35;;;;;;;7.33;5.67;;;17.20;1.00;;;;;;5050331;28;20509;-56
2023/03/18 11:09:21;;;;;;;6.47;5.60;;;17.30;1.00;;;;;;5049386;28;20410;-56
2023/03/18 11:11:49;;;;;;;7.90;6.07;;;17.10;1.00;;;;;;5049212;28;20442;-55
2023/03/18 11:14:20;;;;;;;7.93;5.77;;;17.10;1.00;;;;;;5049394;28;20437;-55
2023/03/18 11:16:49;;;;;;;7.50;6.20;;;17.00;1.00;;;;;;5049229;28;20462;-54
2023/03/18 11:19:23;;;;;;;5.93;4.70;;;16.90;1.00;;;;;;5049331;28;20439;-57
2023/03/18 11:22:00;;;;;;;7.10;5.97;;;16.70;1.00;;;;;;5048948;28;20442;-56
2023/03/18 11:24:38;;;;;;;8.73;6.13;;;16.70;1.00;;;;;;5052638;28;20417;-54
2023/03/18 11:27:24;;;;;;;7.90;6.30;;;16.70;1.00;;;;;;5056075;28;20585;-55
2023/03/18 11:29:53;;;;;;;7.73;6.33;;;16.80;1.00;;;;;;5055602;28;20492;-56
2023/03/18 11:32:29;;;;;;;8.87;6.70;;;16.80;1.00;;;;;;5055302;28;20470;-56
2023/03/18 11:35:01;;;;;;;7.83;6.03;;;16.90;1.00;;;;;;5055171;28;20800;-56
2023/03/18 11:37:47;;;;;;;7.60;5.43;;;17.00;1.00;;;;;;5055355;28;20554;-56
2023/03/18 11:40:12;;;;;;;6.90;6.03;;;17.00;1.00;;;;;;5074868;28;20425;-55
2023/03/18 11:42:39;;;;;;;7.33;6.13;;;16.90;1.00;;;;;;5075486;28;20456;-55
2023/03/18 11:45:30;;;;;;;7.87;6.30;;;17.00;1.00;;;;;;5074425;28;20214;-56
2023/03/18 11:47:57;;;;;;;7.87;5.90;;;17.20;1.00;;;;;;5055274;28;20434;-56
2023/03/18 11:50:26;;;;;;;8.47;6.20;;;17.30;1.00;;;;;;5055027;28;20445;-56
2023/03/18 11:52:54;;;;;;;11.17;6.00;;;17.30;1.00;;;;;;5055533;28;20844;-56
2023/03/18 11:55:36;;;;;;;8.60;6.40;;;17.20;1.00;;;;;;5055153;28;20559;-57
2023/03/18 11:58:10;;;;;;;10.67;6.63;;;17.10;1.00;;;;;;5055130;28;20462;-54
2023/03/18 12:00:36;;;;;;;7.53;6.07;;;17.10;1.00;;;;;;5055196;28;20409;-56
2023/03/18 12:03:20;;;;;;;7.67;5.83;;;17.20;1.00;;;;;;5055635;28;20958;-55
2023/03/18 12:06:12;;;;;;;7.47;6.50;;;17.40;1.00;;;;;;5055369;28;20710;-56
2023/03/18 12:09:02;;;;;;;10.87;6.80;;;17.60;1.00;;;;;;5044707;28;20499;-55
2023/03/18 12:11:37;;;;;;;7.20;6.23;;;17.70;1.00;;;;;;5055303;28;20459;-56
2023/03/18 12:14:05;;;;;;;8.70;6.77;;;17.70;1.00;;;;;;5055383;28;20438;-55
2023/03/18 12:16:54;;;;;;;13.40;6.77;;;17.50;1.00;;;;;;5054956;28;20485;-55
2023/03/18 12:19:35;;;;;;;8.90;6.70;;;17.40;1.00;;;;;;5055096;28;20443;-56
2023/03/18 12:22:23;;;;;;;8.63;6.50;;;17.40;1.00;;;;;;5055323;28;20492;-55
2023/03/18 12:25:06;;;;;;;10.87;7.50;;;17.40;1.00;;;;;;5075154;28;20444;-54
2023/03/18 12:28:14;;;;;;;8.40;7.50;;;17.60;1.00;;;;;;5068342;28;20439;-56
2023/03/18 12:30:59;;;;;;;8.33;7.13;;;17.10;1.00;;;;;;5055205;28;20432;-56
2023/03/18 12:33:55;;;;;;;10.57;7.90;;;17.30;1.00;;;;;;5054637;28;20449;-54
2023/03/18 12:36:47;;;;;;;8.60;6.57;;;17.20;1.00;;;;;;5052556;28;20434;-54
2023/03/18 12:39:39;;;;;;;9.37;6.97;;;17.30;1.00;;;;;;5052023;28;20417;-56
2023/03/18 12:42:30;;;;;;;10.27;7.20;;;17.40;1.00;;;;;;5051427;28;20569;-56
2023/03/18 12:45:01;;;;;;;10.90;7.27;;;17.30;1.00;;;;;;5051467;28;20956;-56
2023/03/18 12:47:40;;;;;;;7.93;6.93;;;17.30;1.00;;;;;;5051749;28;20760;-55
2023/03/18 12:50:17;;;;;;;7.60;6.33;;;17.50;1.00;;;;;;5051499;28;20485;-55
2023/03/18 12:52:54;;;;;;;8.50;6.90;;;17.60;1.00;;;;;;5052024;28;20999;-55
2023/03/18 12:55:28;;;;;;;11.07;7.10;;;17.60;1.00;;;;;;5051416;28;21092;-56
2023/03/18 12:58:04;;;;;;;9.97;7.37;;;17.50;1.00;;;;;;5051288;28;20458;-55
2023/03/18 13:00:43;;;;;;;8.87;7.20;;;17.60;1.00;;;;;;5051553;28;21273;-55
2023/03/18 13:03:22;;;;;;;12.40;7.53;;;17.70;1.00;;;;;;5049831;28;20626;-56
2023/03/18 13:06:09;;;;;;;13.60;7.93;;;17.70;1.00;;;;;;5050387;28;20553;-56
2023/03/18 13:09:05;;;;;;;9.73;7.10;;;17.70;1.00;;;;;;5053151;28;20447;-55
2023/03/18 13:11:52;;;;;;;11.07;7.67;;;17.60;1.00;;;;;;5071177;28;20926;-55
2023/03/18 13:14:52;;;;;;;10.13;7.80;;;17.50;1.00;;;;;;5071110;28;20438;-55
2023/03/18 13:17:29;;;;;;;11.83;8.63;;;17.30;1.00;;;;;;5071048;28;20462;-56
2023/03/18 13:20:00;;;;;;;8.93;7.73;;;17.40;1.00;;;;;;5060370;28;20521;-55